Time;durP1;ratioP1;P1;durP2;ratioP2;P2;SDS_P1;SDS_P2;PMS_P1;PMS_P2;Temp;Humidity;BMP_temperature;BMP_pressure;BME280_temperature;BME280_humidity;BME280_pressure;Samples;Min_cycle;Max_cycle;Signal;HPM_P1;HPM_P2
2022/03/31 14:48:25;;;;;;;;;67.20;53.80;;;;;;;;5280241;27;1509841;-73
2022/03/31 14:51:00;;;;;;;;;54.00;46.80;;;;;;;;5286989;27;8874;-71
2022/03/31 14:53:34;;;;;;;;;47.80;44.40;;;;;;;;5264419;28;9000;-72
2022/03/31 14:56:06;;;;;;;;;55.20;47.00;;;;;;;;5261110;28;9533;-72
2022/03/31 14:58:38;;;;;;;;;41.40;38.20;;;;;;;;5255400;27;8834;-71
2022/03/31 15:01:09;;;;;;;;;51.00;45.60;;;;;;;;5236055;28;8811;-72
2022/03/31 15:03:59;;;;;;;;;43.40;39.80;;;;;;;;5253011;28;8798;-73
2022/03/31 15:06:30;;;;;;;;;47.20;40.40;;;;;;;;5252188;27;8822;-72
2022/03/31 15:09:01;;;;;;;;;53.25;43.00;;;;;;;;5233658;27;8796;-72
2022/03/31 15:14:43;;;;;;;;;43.60;40.40;;;;;;;;5254049;27;8876;-72
2022/03/31 15:17:16;;;;;;;;;34.00;33.60;;;;;;;;5249736;28;9583;-72
2022/03/31 15:19:48;;;;;;;;;30.40;28.80;;;;;;;;5237227;27;8784;-73
2022/03/31 15:22:19;;;;;;;;;34.80;33.60;;;;;;;;5267942;27;8795;-74
2022/03/31 15:24:53;;;;;;;;;38.20;34.40;;;;;;;;5239206;27;8786;-73
2022/03/31 15:27:25;;;;;;;;;36.60;33.80;;;;;;;;5278320;27;8941;-72
2022/03/31 15:29:58;;;;;;;;;33.60;30.20;;;;;;;;5234867;27;9511;-73
2022/03/31 15:32:29;;;;;;;;;26.60;25.60;;;;;;;;5272578;27;8793;-77
2022/03/31 15:35:20;;;;;;;;;41.60;38.00;;;;;;;;5252007;28;8883;-74
2022/03/31 15:37:52;;;;;;;;;34.60;30.00;;;;;;;;5250400;28;8807;-75
2022/03/31 15:40:23;;;;;;;;;39.80;36.80;;;;;;;;5252809;28;8779;-72
2022/03/31 15:42:54;;;;;;;;;34.25;34.00;;;;;;;;5251815;28;9252;-73
2022/03/31 15:45:25;;;;;;;;;106.00;83.50;;;;;;;;5268024;27;8796;-73
2022/03/31 15:48:01;;;;;;;;;45.00;42.40;;;;;;;;5248869;27;8829;-72
2022/03/31 15:50:32;;;;;;;;;30.80;30.80;;;;;;;;5237378;27;8836;-73
2022/03/31 15:53:04;;;;;;;;;29.20;29.20;;;;;;;;5233390;27;8800;-72
2022/03/31 15:55:37;;;;;;;;;30.40;27.20;;;;;;;;5241620;27;8806;-74
2022/03/31 15:58:10;;;;;;;;;34.20;30.60;;;;;;;;5253081;28;8804;-73
2022/03/31 16:00:43;;;;;;;;;32.00;30.75;;;;;;;;5240052;28;8824;-74
2022/03/31 16:03:13;;;;;;;;;31.20;28.80;;;;;;;;5255861;28;8817;-73
2022/03/31 16:05:45;;;;;;;;;74.80;57.40;;;;;;;;5221356;28;8806;-73
2022/03/31 16:08:15;;;;;;;;;109.00;84.67;;;;;;;;5238780;28;8828;-76
2022/03/31 16:11:05;;;;;;;;;88.00;69.25;;;;;;;;5236482;28;11047;-71
2022/03/31 16:13:36;;;;;;;;;70.25;55.25;;;;;;;;5246050;28;8827;-72
2022/03/31 16:16:07;;;;;;;;;26.80;19.20;;;;;;;;5242081;28;8836;-72
2022/03/31 16:18:38;;;;;;;;;70.60;55.60;;;;;;;;5240909;28;8879;-72
2022/03/31 16:21:27;;;;;;;;;77.40;64.40;;;;;;;;5241853;28;8806;-72
2022/03/31 16:24:01;;;;;;;;;71.50;59.50;;;;;;;;5247301;28;8871;-72
2022/03/31 16:26:32;;;;;;;;;61.40;51.80;;;;;;;;5224444;28;9599;-72
2022/03/31 16:29:04;;;;;;;;;63.00;50.40;;;;;;;;5226216;28;8964;-73
2022/03/31 16:31:53;;;;;;;;;77.60;61.60;;;;;;;;5259587;28;8991;-73
2022/03/31 16:34:24;;;;;;;;;46.75;44.00;;;;;;;;5224739;28;8937;-74
2022/03/31 16:36:55;;;;;;;;;53.60;48.20;;;;;;;;5220340;28;11557;-73
2022/03/31 16:39:26;;;;;;;;;63.40;50.60;;;;;;;;5240130;28;8810;-75
2022/03/31 16:41:58;;;;;;;;;70.50;60.50;;;;;;;;5244637;28;8785;-74
2022/03/31 16:44:29;;;;;;;;;88.25;69.25;;;;;;;;5233867;28;10529;-73
2022/03/31 16:47:00;;;;;;;;;88.00;67.67;;;;;;;;5239175;28;8847;-72
2022/03/31 16:49:31;;;;;;;;;91.75;68.25;;;;;;;;5241916;28;12239;-74
2022/03/31 16:52:02;;;;;;;;;71.60;61.00;;;;;;;;5234005;28;8907;-73
2022/03/31 16:54:33;;;;;;;;;71.80;56.80;;;;;;;;5238796;28;8791;-75
2022/03/31 16:57:05;;;;;;;;;74.50;61.00;;;;;;;;5220689;28;8856;-73
2022/03/31 16:59:36;;;;;;;;;65.60;53.20;;;;;;;;5227274;28;9978;-72
2022/03/31 17:02:07;;;;;;;;;78.25;62.50;;;;;;;;5255905;28;8803;-72
2022/03/31 17:04:38;;;;;;;;;78.75;63.25;;;;;;;;5236460;28;8796;-72
2022/03/31 17:07:10;;;;;;;;;71.40;59.20;;;;;;;;5223998;28;10254;-73
2022/03/31 17:09:41;;;;;;;;;78.00;62.60;;;;;;;;5239636;28;8919;-73
2022/03/31 17:12:12;;;;;;;;;75.75;59.50;;;;;;;;5230845;28;8977;-74
2022/03/31 17:14:45;;;;;;;;;74.00;58.25;;;;;;;;5235037;28;11531;-74
2022/03/31 17:17:16;;;;;;;;;69.00;56.60;;;;;;;;5235339;28;11541;-76
2022/03/31 17:19:47;;;;;;;;;74.80;61.40;;;;;;;;5239088;28;8804;-72
2022/03/31 17:22:18;;;;;;;;;66.75;56.75;;;;;;;;5262215;28;8781;-72
2022/03/31 17:24:49;;;;;;;;;83.60;64.80;;;;;;;;5229685;28;8815;-74
2022/03/31 17:27:38;;;;;;;;;71.80;55.80;;;;;;;;5237859;28;8849;-73
2022/03/31 17:30:10;;;;;;;;;71.75;59.25;;;;;;;;5236078;28;8808;-72
2022/03/31 17:32:41;;;;;;;;;48.60;43.20;;;;;;;;5233150;28;11480;-73
2022/03/31 17:35:12;;;;;;;;;60.80;51.80;;;;;;;;5235197;28;8827;-72
2022/03/31 17:37:43;;;;;;;;;68.75;54.75;;;;;;;;5232673;28;8840;-73
2022/03/31 17:40:15;;;;;;;;;74.50;59.00;;;;;;;;5235375;28;8888;-76
2022/03/31 17:42:46;;;;;;;;;85.25;68.00;;;;;;;;5235071;28;10974;-73
2022/03/31 17:45:36;;;;;;;;;104.00;76.25;;;;;;;;5234080;28;8800;-72
2022/03/31 17:48:07;;;;;;;;;88.00;70.00;;;;;;;;5250086;28;8883;-72
2022/03/31 17:50:56;;;;;;;;;88.75;66.00;;;;;;;;5236363;28;8807;-72
2022/03/31 17:53:29;;;;;;;;;74.50;62.25;;;;;;;;5239237;28;8826;-71
2022/03/31 17:56:00;;;;;;;;;75.00;58.40;;;;;;;;5217796;28;9560;-72
2022/03/31 17:58:50;;;;;;;;;59.00;50.60;;;;;;;;5251290;28;8920;-72
2022/03/31 18:01:21;;;;;;;;;68.60;57.00;;;;;;;;5235375;28;8800;-72
2022/03/31 18:03:52;;;;;;;;;80.25;65.50;;;;;;;;5247644;28;8820;-72
2022/03/31 18:06:41;;;;;;;;;72.80;60.00;;;;;;;;5255132;28;11110;-72
2022/03/31 18:09:12;;;;;;;;;78.25;64.00;;;;;;;;5245902;28;8841;-74
2022/03/31 18:11:44;;;;;;;;;86.40;64.60;;;;;;;;5233463;28;10417;-72
2022/03/31 18:14:33;;;;;;;;;79.80;61.20;;;;;;;;5256965;28;8825;-72
2022/03/31 18:17:23;;;;;;;;;84.75;66.50;;;;;;;;5228939;28;8851;-73
2022/03/31 18:19:54;;;;;;;;;102.50;77.00;;;;;;;;5249325;28;9563;-72
2022/03/31 18:22:25;;;;;;;;;100.33;80.33;;;;;;;;5251768;28;8888;-73
2022/03/31 18:24:55;;;;;;;;;103.00;76.00;;;;;;;;5255237;28;11960;-71
2022/03/31 18:27:27;;;;;;;;;85.67;69.00;;;;;;;;5235015;28;8815;-72
2022/03/31 18:35:38;;;;;;;;;75.40;57.00;;;;;;;;5233072;28;8797;-71
2022/03/31 18:38:12;;;;;;;;;105.75;81.50;;;;;;;;5250745;28;8837;-74
2022/03/31 18:40:47;;;;;;;;;88.75;70.00;;;;;;;;5258217;28;9558;-73
2022/03/31 18:43:19;;;;;;;;;69.20;55.80;;;;;;;;5225746;28;8788;-72
2022/03/31 18:45:51;;;;;;;;;51.40;46.00;;;;;;;;5228556;28;9534;-73
2022/03/31 18:48:23;;;;;;;;;39.40;34.20;;;;;;;;5250670;28;8828;-75
2022/03/31 18:50:54;;;;;;;;;35.40;33.60;;;;;;;;5239645;28;8877;-72
2022/03/31 18:53:26;;;;;;;;;37.25;36.75;;;;;;;;5239513;28;8804;-71
2022/03/31 18:55:57;;;;;;;;;30.60;29.80;;;;;;;;5245829;28;11534;-72
2022/03/31 18:58:27;;;;;;;;;42.75;36.25;;;;;;;;5216761;28;8788;-74
2022/03/31 19:00:59;;;;;;;;;35.00;33.25;;;;;;;;5217921;28;9549;-73
2022/03/31 19:03:30;;;;;;;;;33.60;32.20;;;;;;;;5234285;28;10548;-73
2022/03/31 19:08:52;;;;;;;;;25.20;23.60;;;;;;;;5250354;28;8810;-73
2022/03/31 19:11:22;;;;;;;;;23.00;22.20;;;;;;;;5236731;28;8839;-73
2022/03/31 19:13:55;;;;;;;;;28.00;26.50;;;;;;;;5240679;28;8793;-79
2022/03/31 19:16:29;;;;;;;;;24.40;23.60;;;;;;;;5241072;28;9827;-73
2022/03/31 19:19:01;;;;;;;;;30.40;29.40;;;;;;;;5243752;28;8880;-76
2022/03/31 19:21:32;;;;;;;;;38.00;36.00;;;;;;;;5227641;28;8804;-73
2022/03/31 19:24:03;;;;;;;;;33.00;33.00;;;;;;;;5248861;28;11541;-74
2022/03/31 19:26:34;;;;;;;;;32.40;30.20;;;;;;;;5238259;28;8832;-72
2022/03/31 19:29:24;;;;;;;;;34.20;31.80;;;;;;;;5243385;28;8831;-73
2022/03/31 19:31:55;;;;;;;;;39.20;35.40;;;;;;;;5252697;28;8801;-73
2022/03/31 19:34:44;;;;;;;;;46.60;40.60;;;;;;;;5245096;28;8805;-72
2022/03/31 19:37:16;;;;;;;;;84.20;65.60;;;;;;;;5229904;28;9608;-75
2022/03/31 19:39:47;;;;;;;;;23.80;21.40;;;;;;;;5245939;28;8829;-74
2022/03/31 19:42:18;;;;;;;;;36.80;35.20;;;;;;;;5212953;28;8790;-75
2022/03/31 19:44:49;;;;;;;;;36.00;35.50;;;;;;;;5211891;28;8922;-76
2022/03/31 19:47:20;;;;;;;;;124.75;94.00;;;;;;;;5245449;28;11565;-76
2022/03/31 19:49:51;;;;;;;;;65.25;55.00;;;;;;;;5229344;28;8807;-74
2022/03/31 19:52:22;;;;;;;;;60.40;51.60;;;;;;;;5212749;28;11252;-77
2022/03/31 19:54:54;;;;;;;;;34.40;34.00;;;;;;;;5212816;28;8829;-76
2022/03/31 19:57:25;;;;;;;;;27.80;26.40;;;;;;;;5212448;28;8799;-73
2022/03/31 19:59:56;;;;;;;;;29.50;28.00;;;;;;;;5229710;28;8885;-75
2022/03/31 20:02:27;;;;;;;;;31.80;30.00;;;;;;;;5212322;28;11500;-73
2022/03/31 20:04:58;;;;;;;;;24.75;23.50;;;;;;;;5229260;28;8807;-74
2022/03/31 20:07:29;;;;;;;;;30.50;26.50;;;;;;;;5229057;28;11584;-74
2022/03/31 20:09:59;;;;;;;;;24.75;22.25;;;;;;;;5211996;28;11516;-74
2022/03/31 20:12:30;;;;;;;;;29.50;29.50;;;;;;;;5229150;28;8796;-74
2022/03/31 20:15:01;;;;;;;;;24.25;22.75;;;;;;;;5229014;28;11469;-75
2022/03/31 20:17:33;;;;;;;;;25.80;25.80;;;;;;;;5247695;28;8800;-73
2022/03/31 20:20:04;;;;;;;;;22.75;21.00;;;;;;;;5231185;28;8777;-75
2022/03/31 20:22:35;;;;;;;;;27.20;23.60;;;;;;;;5228942;28;8795;-74
2022/03/31 20:25:06;;;;;;;;;28.75;28.25;;;;;;;;5244170;28;8828;-74
2022/03/31 20:27:56;;;;;;;;;29.40;25.80;;;;;;;;5247285;28;12344;-74
2022/03/31 20:30:27;;;;;;;;;12.40;10.60;;;;;;;;5230677;28;8821;-76
2022/03/31 20:33:17;;;;;;;;;20.00;19.80;;;;;;;;5232424;28;8783;-76
2022/03/31 20:35:48;;;;;;;;;23.00;23.00;;;;;;;;5214739;28;8984;-76
2022/03/31 20:38:19;;;;;;;;;22.80;20.80;;;;;;;;5214100;28;8769;-75
2022/03/31 20:40:50;;;;;;;;;27.40;23.20;;;;;;;;5230799;28;9563;-75
2022/03/31 20:43:21;;;;;;;;;19.25;18.50;;;;;;;;5230486;28;8773;-76
2022/03/31 20:45:52;;;;;;;;;22.00;21.60;;;;;;;;5230172;28;8937;-76
2022/03/31 20:48:25;;;;;;;;;23.25;20.75;;;;;;;;5230116;28;8847;-76
2022/03/31 20:50:56;;;;;;;;;20.60;19.80;;;;;;;;5218208;28;11696;-75
2022/03/31 20:53:28;;;;;;;;;15.60;15.60;;;;;;;;5192974;28;8834;-76
2022/03/31 20:55:59;;;;;;;;;15.60;14.60;;;;;;;;5205075;28;8793;-75
2022/03/31 20:58:30;;;;;;;;;15.25;13.00;;;;;;;;5173145;28;8815;-75
2022/03/31 21:01:03;;;;;;;;;16.40;13.20;;;;;;;;5189042;28;11644;-76
2022/03/31 21:03:53;;;;;;;;;21.40;21.00;;;;;;;;5222535;28;8822;-71
2022/03/31 21:06:27;;;;;;;;;17.00;17.00;;;;;;;;5226007;28;8920;-73
2022/03/31 21:09:19;;;;;;;;;19.60;19.60;;;;;;;;5191606;28;9515;-73
2022/03/31 21:11:53;;;;;;;;;28.40;26.40;;;;;;;;5189326;28;9448;-74
2022/03/31 21:14:28;;;;;;;;;27.20;25.20;;;;;;;;5189277;28;8815;-74
2022/03/31 21:17:01;;;;;;;;;23.20;22.60;;;;;;;;5217319;28;8827;-74
2022/03/31 21:19:37;;;;;;;;;27.00;26.20;;;;;;;;5209629;28;8939;-74
2022/03/31 21:22:11;;;;;;;;;18.20;16.80;;;;;;;;5209742;28;8828;-75
2022/03/31 21:24:44;;;;;;;;;17.00;16.60;;;;;;;;5226407;28;9608;-76
2022/03/31 21:27:19;;;;;;;;;23.60;23.20;;;;;;;;5209930;28;8886;-75
2022/03/31 21:29:52;;;;;;;;;21.80;21.80;;;;;;;;5208995;28;8777;-74
2022/03/31 21:32:24;;;;;;;;;7.20;7.20;;;;;;;;5220640;28;8804;-74
2022/03/31 21:34:59;;;;;;;;;16.80;16.80;;;;;;;;5196362;28;8824;-77
2022/03/31 21:37:36;;;;;;;;;19.60;19.60;;;;;;;;5189279;28;8788;-77
2022/03/31 21:40:09;;;;;;;;;35.80;33.40;;;;;;;;5205832;28;8780;-77
2022/03/31 21:43:03;;;;;;;;;21.40;21.00;;;;;;;;5205420;28;9506;-76
2022/03/31 21:45:38;;;;;;;;;21.40;21.00;;;;;;;;5189329;28;8849;-76
2022/03/31 21:48:13;;;;;;;;;17.20;16.40;;;;;;;;5219388;28;8983;-76
2022/03/31 21:50:47;;;;;;;;;12.00;11.80;;;;;;;;5253667;28;8811;-76
2022/03/31 21:53:39;;;;;;;;;24.00;24.00;;;;;;;;5225041;28;8822;-75
2022/03/31 21:56:11;;;;;;;;;22.80;22.00;;;;;;;;5208311;28;8863;-74
2022/03/31 21:59:02;;;;;;;;;17.00;17.00;;;;;;;;5225840;28;9546;-74
2022/03/31 22:01:36;;;;;;;;;10.60;9.40;;;;;;;;5206060;28;8904;-74
2022/03/31 22:04:09;;;;;;;;;17.40;17.00;;;;;;;;5212298;28;8783;-74
2022/03/31 22:06:42;;;;;;;;;13.40;13.40;;;;;;;;5212534;28;9034;-73
2022/03/31 22:12:25;;;;;;;;;11.60;10.80;;;;;;;;5230471;28;8803;-73
2022/03/31 22:14:59;;;;;;;;;15.00;15.00;;;;;;;;5212379;28;8786;-73
2022/03/31 22:17:35;;;;;;;;;14.40;14.20;;;;;;;;5245854;28;8787;-73
2022/03/31 22:20:06;;;;;;;;;21.00;21.00;;;;;;;;5245290;28;8809;-71
2022/03/31 22:22:38;;;;;;;;;23.80;23.20;;;;;;;;5245316;28;8796;-72
2022/03/31 22:25:10;;;;;;;;;24.80;24.80;;;;;;;;5245324;28;8815;-72
2022/03/31 22:27:42;;;;;;;;;28.80;28.00;;;;;;;;5244830;28;8834;-71
2022/03/31 22:30:15;;;;;;;;;28.00;28.00;;;;;;;;5245531;28;8791;-71
2022/03/31 22:32:48;;;;;;;;;28.00;27.60;;;;;;;;5228188;28;8804;-71
2022/03/31 22:35:20;;;;;;;;;19.60;19.60;;;;;;;;5229018;28;8787;-71
2022/03/31 22:37:52;;;;;;;;;46.40;44.60;;;;;;;;5228613;28;9514;-72
2022/03/31 22:40:25;;;;;;;;;48.00;45.00;;;;;;;;5228953;28;8933;-70
2022/03/31 22:42:57;;;;;;;;;66.00;53.60;;;;;;;;5228504;28;8810;-71
2022/03/31 22:45:30;;;;;;;;;70.20;57.80;;;;;;;;5228457;28;8786;-71
2022/03/31 22:48:03;;;;;;;;;55.00;48.60;;;;;;;;5227973;28;8870;-71
2022/03/31 22:50:36;;;;;;;;;57.20;51.40;;;;;;;;5244729;28;8827;-71
2022/03/31 22:53:10;;;;;;;;;34.00;30.20;;;;;;;;5246374;28;9529;-72
2022/03/31 22:56:00;;;;;;;;;36.60;36.00;;;;;;;;5245492;28;8787;-70
2022/03/31 22:58:53;;;;;;;;;28.00;27.00;;;;;;;;5244931;28;8787;-71
2022/03/31 23:01:25;;;;;;;;;29.20;26.60;;;;;;;;5227709;28;8806;-71
2022/03/31 23:03:57;;;;;;;;;25.00;24.40;;;;;;;;5223828;28;8800;-71
2022/03/31 23:06:34;;;;;;;;;22.80;20.80;;;;;;;;5207673;28;8770;-71
2022/03/31 23:09:08;;;;;;;;;22.60;21.60;;;;;;;;5194407;28;8793;-72
2022/03/31 23:11:41;;;;;;;;;19.00;18.00;;;;;;;;5233281;28;8787;-72
2022/03/31 23:14:14;;;;;;;;;22.00;20.60;;;;;;;;5232555;28;8945;-72
2022/03/31 23:16:49;;;;;;;;;18.60;18.20;;;;;;;;5232604;28;8917;-71
2022/03/31 23:19:21;;;;;;;;;21.80;21.60;;;;;;;;5248985;28;8767;-71
2022/03/31 23:21:54;;;;;;;;;20.00;19.60;;;;;;;;5265657;28;8829;-70
2022/03/31 23:24:28;;;;;;;;;6.00;3.20;;;;;;;;5248723;28;8793;-72
2022/03/31 23:27:02;;;;;;;;;15.00;15.00;;;;;;;;5232438;28;8819;-73
2022/03/31 23:29:35;;;;;;;;;19.20;19.20;;;;;;;;5248276;28;8811;-72
2022/03/31 23:32:08;;;;;;;;;18.00;17.60;;;;;;;;5248555;28;8786;-70
2022/03/31 23:34:40;;;;;;;;;17.40;17.20;;;;;;;;5232029;28;8793;-71
2022/03/31 23:37:31;;;;;;;;;12.80;12.80;;;;;;;;5228419;28;8785;-69
2022/03/31 23:40:04;;;;;;;;;18.40;17.60;;;;;;;;5194866;28;8793;-70
2022/03/31 23:42:39;;;;;;;;;15.80;15.40;;;;;;;;5228007;28;8827;-71
2022/03/31 23:45:11;;;;;;;;;39.80;38.00;;;;;;;;5194736;28;8801;-71
2022/03/31 23:47:44;;;;;;;;;80.20;63.00;;;;;;;;5214658;28;8862;-71
2022/03/31 23:50:15;;;;;;;;;81.80;63.60;;;;;;;;5248287;28;8791;-69
2022/03/31 23:52:49;;;;;;;;;70.00;56.60;;;;;;;;5264890;28;8811;-70
2022/03/31 23:55:24;;;;;;;;;66.00;53.40;;;;;;;;5231550;28;8771;-72
2022/03/31 23:58:15;;;;;;;;;78.20;61.60;;;;;;;;5248807;28;8803;-72
